sensor_id;sensor_type;location;lat;lon;timestamp;temperature;humidity
19039;DHT22;9652;49.014;12.052;2023-10-13T00:02:16;18.60;71.30
19039;DHT22;9652;49.014;12.052;2023-10-13T00:04:48;18.50;71.30
19039;DHT22;9652;49.014;12.052;2023-10-13T00:07:15;18.50;71.50
19039;DHT22;9652;49.014;12.052;2023-10-13T00:09:43;18.40;71.50
19039;DHT22;9652;49.014;12.052;2023-10-13T00:12:10;18.40;71.60
19039;DHT22;9652;49.014;12.052;2023-10-13T00:14:39;18.40;71.80
19039;DHT22;9652;49.014;12.052;2023-10-13T00:17:07;18.30;72.00
19039;DHT22;9652;49.014;12.052;2023-10-13T00:19:41;18.30;72.10
19039;DHT22;9652;49.014;12.052;2023-10-13T00:22:13;18.30;72.10
19039;DHT22;9652;49.014;12.052;2023-10-13T00:24:43;18.30;72.40
19039;DHT22;9652;49.014;12.052;2023-10-13T00:27:13;18.30;72.30
19039;DHT22;9652;49.014;12.052;2023-10-13T00:30:00;18.30;72.40
19039;DHT22;9652;49.014;12.052;2023-10-13T00:32:49;18.20;72.30
19039;DHT22;9652;49.014;12.052;2023-10-13T00:35:20;18.30;72.50
19039;DHT22;9652;49.014;12.052;2023-10-13T00:37:55;18.30;72.50
19039;DHT22;9652;49.014;12.052;2023-10-13T00:40:24;18.20;72.50
19039;DHT22;9652;49.014;12.052;2023-10-13T00:43:10;18.20;72.50
19039;DHT22;9652;49.014;12.052;2023-10-13T00:46:01;18.20;72.40
19039;DHT22;9652;49.014;12.052;2023-10-13T00:48:36;18.20;72.40
19039;DHT22;9652;49.014;12.052;2023-10-13T00:51:17;18.20;72.40
19039;DHT22;9652;49.014;12.052;2023-10-13T00:53:49;18.20;72.20
19039;DHT22;9652;49.014;12.052;2023-10-13T00:56:17;18.10;72.10
19039;DHT22;9652;49.014;12.052;2023-10-13T00:58:45;18.10;72.00
19039;DHT22;9652;49.014;12.052;2023-10-13T01:01:15;18.10;72.20
19039;DHT22;9652;49.014;12.052;2023-10-13T01:03:48;18.10;72.20
19039;DHT22;9652;49.014;12.052;2023-10-13T01:06:17;18.10;72.30
19039;DHT22;9652;49.014;12.052;2023-10-13T01:08:45;18.00;72.40
19039;DHT22;9652;49.014;12.052;2023-10-13T01:11:18;18.00;72.70
19039;DHT22;9652;49.014;12.052;2023-10-13T01:13:45;18.00;72.80
19039;DHT22;9652;49.014;12.052;2023-10-13T01:16:16;17.90;72.70
19039;DHT22;9652;49.014;12.052;2023-10-13T01:18:43;17.90;72.70
19039;DHT22;9652;49.014;12.052;2023-10-13T01:21:15;17.90;72.70
19039;DHT22;9652;49.014;12.052;2023-10-13T01:23:44;18.00;72.80
19039;DHT22;9652;49.014;12.052;2023-10-13T01:26:12;18.00;72.80
19039;DHT22;9652;49.014;12.052;2023-10-13T01:28:42;17.90;73.50
19039;DHT22;9652;49.014;12.052;2023-10-13T01:31:13;17.90;72.70
19039;DHT22;9652;49.014;12.052;2023-10-13T01:33:50;17.90;72.50
19039;DHT22;9652;49.014;12.052;2023-10-13T01:36:20;17.90;72.40
19039;DHT22;9652;49.014;12.052;2023-10-13T01:38:49;17.80;72.30
19039;DHT22;9652;49.014;12.052;2023-10-13T01:41:17;17.80;72.30
19039;DHT22;9652;49.014;12.052;2023-10-13T01:43:44;17.80;72.30
19039;DHT22;9652;49.014;12.052;2023-10-13T01:46:11;17.70;72.10
19039;DHT22;9652;49.014;12.052;2023-10-13T01:48:41;17.70;72.20
19039;DHT22;9652;49.014;12.052;2023-10-13T01:51:12;17.70;72.40
19039;DHT22;9652;49.014;12.052;2023-10-13T01:53:39;17.70;72.40
19039;DHT22;9652;49.014;12.052;2023-10-13T01:56:09;17.60;72.40
19039;DHT22;9652;49.014;12.052;2023-10-13T01:58:38;17.60;72.60
19039;DHT22;9652;49.014;12.052;2023-10-13T02:01:08;17.60;72.60
19039;DHT22;9652;49.014;12.052;2023-10-13T02:03:35;17.50;72.50
19039;DHT22;9652;49.014;12.052;2023-10-13T02:06:07;17.50;72.50
19039;DHT22;9652;49.014;12.052;2023-10-13T02:08:36;17.50;72.40
19039;DHT22;9652;49.014;12.052;2023-10-13T02:11:10;17.50;72.40
19039;DHT22;9652;49.014;12.052;2023-10-13T02:13:37;17.40;72.30
19039;DHT22;9652;49.014;12.052;2023-10-13T02:16:08;17.40;72.30
19039;DHT22;9652;49.014;12.052;2023-10-13T02:18:35;17.40;72.30
19039;DHT22;9652;49.014;12.052;2023-10-13T02:21:09;17.30;72.20
19039;DHT22;9652;49.014;12.052;2023-10-13T02:23:38;17.30;72.30
19039;DHT22;9652;49.014;12.052;2023-10-13T02:26:11;17.20;72.30
19039;DHT22;9652;49.014;12.052;2023-10-13T02:28:56;17.20;72.40
19039;DHT22;9652;49.014;12.052;2023-10-13T02:31:25;17.20;72.20
19039;DHT22;9652;49.014;12.052;2023-10-13T02:33:52;17.10;72.30
19039;DHT22;9652;49.014;12.052;2023-10-13T02:36:20;17.10;72.40
19039;DHT22;9652;49.014;12.052;2023-10-13T02:39:02;17.10;73.30
19039;DHT22;9652;49.014;12.052;2023-10-13T02:41:34;17.00;72.40
19039;DHT22;9652;49.014;12.052;2023-10-13T02:44:04;17.00;72.40
19039;DHT22;9652;49.014;12.052;2023-10-13T02:46:32;17.00;72.40
19039;DHT22;9652;49.014;12.052;2023-10-13T02:49:02;16.90;72.20
19039;DHT22;9652;49.014;12.052;2023-10-13T02:51:36;16.90;72.30
19039;DHT22;9652;49.014;12.052;2023-10-13T02:54:04;16.90;72.40
19039;DHT22;9652;49.014;12.052;2023-10-13T02:56:37;16.90;72.50
19039;DHT22;9652;49.014;12.052;2023-10-13T02:59:13;16.80;72.60
19039;DHT22;9652;49.014;12.052;2023-10-13T03:01:41;16.90;72.60
19039;DHT22;9652;49.014;12.052;2023-10-13T03:04:07;16.70;72.60
19039;DHT22;9652;49.014;12.052;2023-10-13T03:06:35;16.70;72.70
19039;DHT22;9652;49.014;12.052;2023-10-13T03:09:08;16.70;72.80
19039;DHT22;9652;49.014;12.052;2023-10-13T03:11:45;16.60;72.90
19039;DHT22;9652;49.014;12.052;2023-10-13T03:14:14;16.60;73.00
19039;DHT22;9652;49.014;12.052;2023-10-13T03:16:50;16.70;73.00
19039;DHT22;9652;49.014;12.052;2023-10-13T03:19:17;16.60;73.00
19039;DHT22;9652;49.014;12.052;2023-10-13T03:21:46;16.60;73.00
19039;DHT22;9652;49.014;12.052;2023-10-13T03:24:20;16.60;73.10
19039;DHT22;9652;49.014;12.052;2023-10-13T03:27:00;16.60;73.20
19039;DHT22;9652;49.014;12.052;2023-10-13T03:29:35;16.60;73.20
19039;DHT22;9652;49.014;12.052;2023-10-13T03:32:04;16.60;73.20
19039;DHT22;9652;49.014;12.052;2023-10-13T03:34:37;16.60;73.30
19039;DHT22;9652;49.014;12.052;2023-10-13T03:37:15;16.60;73.20
19039;DHT22;9652;49.014;12.052;2023-10-13T03:39:43;16.60;73.20
19039;DHT22;9652;49.014;12.052;2023-10-13T03:42:12;16.60;73.30
19039;DHT22;9652;49.014;12.052;2023-10-13T03:44:44;16.60;73.50
19039;DHT22;9652;49.014;12.052;2023-10-13T03:47:12;16.60;73.30
19039;DHT22;9652;49.014;12.052;2023-10-13T03:49:52;16.60;73.20
19039;DHT22;9652;49.014;12.052;2023-10-13T03:52:40;16.60;73.20
19039;DHT22;9652;49.014;12.052;2023-10-13T03:55:08;16.60;73.20
19039;DHT22;9652;49.014;12.052;2023-10-13T03:57:44;16.50;73.10
19039;DHT22;9652;49.014;12.052;2023-10-13T04:00:16;16.50;73.10
19039;DHT22;9652;49.014;12.052;2023-10-13T04:02:49;16.50;73.00
19039;DHT22;9652;49.014;12.052;2023-10-13T04:05:30;16.50;73.00
19039;DHT22;9652;49.014;12.052;2023-10-13T04:08:04;16.50;73.00
19039;DHT22;9652;49.014;12.052;2023-10-13T04:10:51;16.40;72.90
19039;DHT22;9652;49.014;12.052;2023-10-13T04:13:37;16.40;72.80
19039;DHT22;9652;49.014;12.052;2023-10-13T04:16:32;16.40;72.80
19039;DHT22;9652;49.014;12.052;2023-10-13T04:19:03;16.30;72.80
19039;DHT22;9652;49.014;12.052;2023-10-13T04:21:35;16.30;72.80
19039;DHT22;9652;49.014;12.052;2023-10-13T04:24:20;16.30;72.80
19039;DHT22;9652;49.014;12.052;2023-10-13T04:27:05;16.30;72.80
19039;DHT22;9652;49.014;12.052;2023-10-13T04:29:49;16.20;72.70
19039;DHT22;9652;49.014;12.052;2023-10-13T04:32:28;16.20;72.80
19039;DHT22;9652;49.014;12.052;2023-10-13T04:34:55;16.20;72.80
19039;DHT22;9652;49.014;12.052;2023-10-13T04:37:34;16.10;72.80
19039;DHT22;9652;49.014;12.052;2023-10-13T04:40:14;16.10;72.80
19039;DHT22;9652;49.014;12.052;2023-10-13T04:42:43;16.10;72.80
19039;DHT22;9652;49.014;12.052;2023-10-13T04:45:16;16.00;72.80
19039;DHT22;9652;49.014;12.052;2023-10-13T04:48:05;16.00;73.00
19039;DHT22;9652;49.014;12.052;2023-10-13T04:50:59;16.00;73.00
19039;DHT22;9652;49.014;12.052;2023-10-13T04:53:44;15.90;73.10
19039;DHT22;9652;49.014;12.052;2023-10-13T04:56:30;15.90;73.60
19039;DHT22;9652;49.014;12.052;2023-10-13T04:59:14;15.90;72.90
19039;DHT22;9652;49.014;12.052;2023-10-13T05:01:43;15.80;72.80
19039;DHT22;9652;49.014;12.052;2023-10-13T05:04:34;15.80;72.90
19039;DHT22;9652;49.014;12.052;2023-10-13T05:07:25;15.80;73.00
19039;DHT22;9652;49.014;12.052;2023-10-13T05:10:09;15.80;73.10
19039;DHT22;9652;49.014;12.052;2023-10-13T05:12:54;15.70;73.10
19039;DHT22;9652;49.014;12.052;2023-10-13T05:15:47;15.70;73.10
19039;DHT22;9652;49.014;12.052;2023-10-13T05:18:32;15.70;73.30
19039;DHT22;9652;49.014;12.052;2023-10-13T05:21:18;15.60;73.10
19039;DHT22;9652;49.014;12.052;2023-10-13T05:24:04;15.60;73.20
19039;DHT22;9652;49.014;12.052;2023-10-13T05:26:48;15.60;73.30
19039;DHT22;9652;49.014;12.052;2023-10-13T05:29:34;15.60;73.30
19039;DHT22;9652;49.014;12.052;2023-10-13T05:32:22;15.50;73.30
19039;DHT22;9652;49.014;12.052;2023-10-13T05:35:07;15.50;73.40
19039;DHT22;9652;49.014;12.052;2023-10-13T05:37:53;15.50;73.30
19039;DHT22;9652;49.014;12.052;2023-10-13T05:40:40;15.50;73.40
19039;DHT22;9652;49.014;12.052;2023-10-13T05:43:35;15.50;73.40
19039;DHT22;9652;49.014;12.052;2023-10-13T05:46:28;15.50;73.60
19039;DHT22;9652;49.014;12.052;2023-10-13T05:49:15;15.50;73.60
19039;DHT22;9652;49.014;12.052;2023-10-13T05:52:00;15.50;73.70
19039;DHT22;9652;49.014;12.052;2023-10-13T05:54:46;15.50;73.70
19039;DHT22;9652;49.014;12.052;2023-10-13T05:57:31;15.50;73.80
19039;DHT22;9652;49.014;12.052;2023-10-13T06:00:21;15.50;73.80
19039;DHT22;9652;49.014;12.052;2023-10-13T06:03:05;15.50;73.90
19039;DHT22;9652;49.014;12.052;2023-10-13T06:05:50;15.50;74.00
19039;DHT22;9652;49.014;12.052;2023-10-13T06:08:35;15.50;74.20
19039;DHT22;9652;49.014;12.052;2023-10-13T06:11:21;15.50;74.30
19039;DHT22;9652;49.014;12.052;2023-10-13T06:14:06;15.50;74.40
19039;DHT22;9652;49.014;12.052;2023-10-13T06:16:58;15.60;74.40
19039;DHT22;9652;49.014;12.052;2023-10-13T06:19:43;15.60;74.40
19039;DHT22;9652;49.014;12.052;2023-10-13T06:22:28;15.60;74.50
19039;DHT22;9652;49.014;12.052;2023-10-13T06:25:12;15.70;74.70
19039;DHT22;9652;49.014;12.052;2023-10-13T06:27:59;15.70;74.80
19039;DHT22;9652;49.014;12.052;2023-10-13T06:30:53;15.80;74.90
19039;DHT22;9652;49.014;12.052;2023-10-13T06:33:23;15.80;75.10
19039;DHT22;9652;49.014;12.052;2023-10-13T06:35:55;15.80;74.90
19039;DHT22;9652;49.014;12.052;2023-10-13T06:38:24;15.90;75.00
19039;DHT22;9652;49.014;12.052;2023-10-13T06:40:56;15.90;75.00
19039;DHT22;9652;49.014;12.052;2023-10-13T06:43:25;16.00;75.00
19039;DHT22;9652;49.014;12.052;2023-10-13T06:45:59;16.00;75.10
19039;DHT22;9652;49.014;12.052;2023-10-13T06:48:27;16.10;76.10
19039;DHT22;9652;49.014;12.052;2023-10-13T06:50:58;16.10;75.20
19039;DHT22;9652;49.014;12.052;2023-10-13T06:53:30;16.20;75.20
19039;DHT22;9652;49.014;12.052;2023-10-13T06:56:05;16.20;75.30
19039;DHT22;9652;49.014;12.052;2023-10-13T06:58:35;16.20;75.30
19039;DHT22;9652;49.014;12.052;2023-10-13T07:01:08;16.30;75.40
19039;DHT22;9652;49.014;12.052;2023-10-13T07:03:40;16.30;75.40
19039;DHT22;9652;49.014;12.052;2023-10-13T07:06:07;16.40;75.50
19039;DHT22;9652;49.014;12.052;2023-10-13T07:08:38;16.40;75.70
19039;DHT22;9652;49.014;12.052;2023-10-13T07:11:05;16.40;75.80
19039;DHT22;9652;49.014;12.052;2023-10-13T07:13:34;16.50;75.90
19039;DHT22;9652;49.014;12.052;2023-10-13T07:16:04;16.60;76.10
19039;DHT22;9652;49.014;12.052;2023-10-13T07:18:33;16.60;76.10
19039;DHT22;9652;49.014;12.052;2023-10-13T07:21:03;16.70;76.20
19039;DHT22;9652;49.014;12.052;2023-10-13T07:23:36;16.80;76.30
19039;DHT22;9652;49.014;12.052;2023-10-13T07:26:05;16.90;76.40
19039;DHT22;9652;49.014;12.052;2023-10-13T07:28:35;17.00;76.40
19039;DHT22;9652;49.014;12.052;2023-10-13T07:31:11;17.00;76.30
19039;DHT22;9652;49.014;12.052;2023-10-13T07:33:40;17.10;76.40
19039;DHT22;9652;49.014;12.052;2023-10-13T07:36:08;17.20;76.60
19039;DHT22;9652;49.014;12.052;2023-10-13T07:38:44;17.30;76.80
19039;DHT22;9652;49.014;12.052;2023-10-13T07:41:18;17.40;76.80
19039;DHT22;9652;49.014;12.052;2023-10-13T07:43:49;17.50;76.80
19039;DHT22;9652;49.014;12.052;2023-10-13T07:46:16;17.60;76.80
19039;DHT22;9652;49.014;12.052;2023-10-13T07:48:43;17.60;76.70
19039;DHT22;9652;49.014;12.052;2023-10-13T07:51:11;17.70;76.60
19039;DHT22;9652;49.014;12.052;2023-10-13T07:53:41;17.90;76.60
19039;DHT22;9652;49.014;12.052;2023-10-13T07:56:09;17.90;76.40
19039;DHT22;9652;49.014;12.052;2023-10-13T07:58:37;18.10;76.30
19039;DHT22;9652;49.014;12.052;2023-10-13T08:01:14;18.10;76.10
19039;DHT22;9652;49.014;12.052;2023-10-13T08:03:44;18.20;75.90
19039;DHT22;9652;49.014;12.052;2023-10-13T08:06:13;18.30;75.90
19039;DHT22;9652;49.014;12.052;2023-10-13T08:08:52;18.40;75.80
19039;DHT22;9652;49.014;12.052;2023-10-13T08:11:33;18.60;75.70
19039;DHT22;9652;49.014;12.052;2023-10-13T08:14:03;18.60;75.50
19039;DHT22;9652;49.014;12.052;2023-10-13T08:16:49;18.70;75.30
19039;DHT22;9652;49.014;12.052;2023-10-13T08:19:24;18.80;75.10
19039;DHT22;9652;49.014;12.052;2023-10-13T08:21:55;18.90;75.10
19039;DHT22;9652;49.014;12.052;2023-10-13T08:24:40;19.00;75.90
19039;DHT22;9652;49.014;12.052;2023-10-13T08:27:33;19.10;75.00
19039;DHT22;9652;49.014;12.052;2023-10-13T08:30:03;19.20;74.70
19039;DHT22;9652;49.014;12.052;2023-10-13T08:32:49;19.30;74.60
19039;DHT22;9652;49.014;12.052;2023-10-13T08:35:23;19.40;74.50
19039;DHT22;9652;49.014;12.052;2023-10-13T08:38:00;19.50;74.30
19039;DHT22;9652;49.014;12.052;2023-10-13T08:40:44;19.60;74.10
19039;DHT22;9652;49.014;12.052;2023-10-13T08:43:40;19.80;73.80
19039;DHT22;9652;49.014;12.052;2023-10-13T08:46:11;19.90;73.60
19039;DHT22;9652;49.014;12.052;2023-10-13T08:48:55;20.00;73.70
19039;DHT22;9652;49.014;12.052;2023-10-13T08:51:34;20.10;73.50
19039;DHT22;9652;49.014;12.052;2023-10-13T08:54:13;20.20;73.30
19039;DHT22;9652;49.014;12.052;2023-10-13T08:56:59;20.30;72.90
19039;DHT22;9652;49.014;12.052;2023-10-13T08:59:47;20.50;72.80
19039;DHT22;9652;49.014;12.052;2023-10-13T09:02:21;20.50;72.40
19039;DHT22;9652;49.014;12.052;2023-10-13T09:05:09;20.60;72.20
19039;DHT22;9652;49.014;12.052;2023-10-13T09:07:56;20.70;72.20
19039;DHT22;9652;49.014;12.052;2023-10-13T09:10:34;20.80;72.10
19039;DHT22;9652;49.014;12.052;2023-10-13T09:13:10;20.90;71.90
19039;DHT22;9652;49.014;12.052;2023-10-13T09:15:47;21.10;71.70
19039;DHT22;9652;49.014;12.052;2023-10-13T09:18:26;21.10;71.50
19039;DHT22;9652;49.014;12.052;2023-10-13T09:21:13;21.30;71.00
19039;DHT22;9652;49.014;12.052;2023-10-13T09:24:10;21.40;70.50
19039;DHT22;9652;49.014;12.052;2023-10-13T09:26:53;21.50;70.40
19039;DHT22;9652;49.014;12.052;2023-10-13T09:29:21;21.60;70.10
19039;DHT22;9652;49.014;12.052;2023-10-13T09:32:01;21.70;69.90
19039;DHT22;9652;49.014;12.052;2023-10-13T09:34:29;21.80;68.30
19039;DHT22;9652;49.014;12.052;2023-10-13T09:36:58;21.90;69.00
19039;DHT22;9652;49.014;12.052;2023-10-13T09:39:25;22.00;68.30
19039;DHT22;9652;49.014;12.052;2023-10-13T09:42:10;22.20;67.80
19039;DHT22;9652;49.014;12.052;2023-10-13T09:44:38;22.30;67.30
19039;DHT22;9652;49.014;12.052;2023-10-13T09:47:10;22.40;66.70
19039;DHT22;9652;49.014;12.052;2023-10-13T09:49:44;22.50;65.80
19039;DHT22;9652;49.014;12.052;2023-10-13T09:52:16;22.60;65.70
19039;DHT22;9652;49.014;12.052;2023-10-13T09:54:59;22.60;65.00
19039;DHT22;9652;49.014;12.052;2023-10-13T09:57:37;22.80;64.00
19039;DHT22;9652;49.014;12.052;2023-10-13T10:00:12;22.90;64.40
19039;DHT22;9652;49.014;12.052;2023-10-13T10:03:06;23.00;64.00
19039;DHT22;9652;49.014;12.052;2023-10-13T10:05:42;23.10;63.30
19039;DHT22;9652;49.014;12.052;2023-10-13T10:08:23;23.20;63.40
19039;DHT22;9652;49.014;12.052;2023-10-13T10:11:04;23.30;61.60
19039;DHT22;9652;49.014;12.052;2023-10-13T10:13:51;23.40;62.30
19039;DHT22;9652;49.014;12.052;2023-10-13T10:16:31;23.50;61.10
19039;DHT22;9652;49.014;12.052;2023-10-13T10:19:08;23.60;61.10
19039;DHT22;9652;49.014;12.052;2023-10-13T10:21:36;23.80;61.40
19039;DHT22;9652;49.014;12.052;2023-10-13T10:24:14;23.80;61.00
19039;DHT22;9652;49.014;12.052;2023-10-13T10:26:53;23.90;59.50
19039;DHT22;9652;49.014;12.052;2023-10-13T10:29:20;24.00;59.80
19039;DHT22;9652;49.014;12.052;2023-10-13T10:31:47;24.10;60.30
19039;DHT22;9652;49.014;12.052;2023-10-13T10:34:16;24.20;59.90
19039;DHT22;9652;49.014;12.052;2023-10-13T10:36:53;24.30;59.40
19039;DHT22;9652;49.014;12.052;2023-10-13T10:39:33;24.40;58.70
19039;DHT22;9652;49.014;12.052;2023-10-13T10:42:11;24.40;57.50
19039;DHT22;9652;49.014;12.052;2023-10-13T10:44:43;24.50;58.60
19039;DHT22;9652;49.014;12.052;2023-10-13T10:47:14;24.50;58.30
19039;DHT22;9652;49.014;12.052;2023-10-13T10:49:46;24.60;58.30
19039;DHT22;9652;49.014;12.052;2023-10-13T10:52:17;24.70;58.10
19039;DHT22;9652;49.014;12.052;2023-10-13T10:54:57;24.80;58.00
19039;DHT22;9652;49.014;12.052;2023-10-13T10:57:25;24.90;58.10
19039;DHT22;9652;49.014;12.052;2023-10-13T10:59:54;25.10;58.00
19039;DHT22;9652;49.014;12.052;2023-10-13T11:02:37;25.30;57.60
19039;DHT22;9652;49.014;12.052;2023-10-13T11:05:06;25.50;57.50
19039;DHT22;9652;49.014;12.052;2023-10-13T11:07:35;25.60;56.60
19039;DHT22;9652;49.014;12.052;2023-10-13T11:10:09;25.70;56.40
19039;DHT22;9652;49.014;12.052;2023-10-13T11:12:54;25.80;55.00
19039;DHT22;9652;49.014;12.052;2023-10-13T11:15:22;25.80;54.90
19039;DHT22;9652;49.014;12.052;2023-10-13T11:17:49;25.80;55.50
19039;DHT22;9652;49.014;12.052;2023-10-13T11:20:22;25.90;55.20
19039;DHT22;9652;49.014;12.052;2023-10-13T11:22:58;26.00;54.50
19039;DHT22;9652;49.014;12.052;2023-10-13T11:25:26;26.00;54.80
19039;DHT22;9652;49.014;12.052;2023-10-13T11:28:10;26.00;54.40
19039;DHT22;9652;49.014;12.052;2023-10-13T11:30:43;26.00;53.40
19039;DHT22;9652;49.014;12.052;2023-10-13T11:33:15;26.10;54.10
19039;DHT22;9652;49.014;12.052;2023-10-13T11:35:48;26.10;53.80
19039;DHT22;9652;49.014;12.052;2023-10-13T11:38:23;26.10;53.40
19039;DHT22;9652;49.014;12.052;2023-10-13T11:40:55;26.00;53.50
19039;DHT22;9652;49.014;12.052;2023-10-13T11:43:35;26.20;53.60
19039;DHT22;9652;49.014;12.052;2023-10-13T11:46:19;26.20;53.20
19039;DHT22;9652;49.014;12.052;2023-10-13T11:49:01;26.30;53.00
19039;DHT22;9652;49.014;12.052;2023-10-13T11:51:45;26.30;53.10
19039;DHT22;9652;49.014;12.052;2023-10-13T11:54:14;26.20;52.80
19039;DHT22;9652;49.014;12.052;2023-10-13T11:56:41;26.30;52.60
19039;DHT22;9652;49.014;12.052;2023-10-13T11:59:08;26.30;52.20
19039;DHT22;9652;49.014;12.052;2023-10-13T12:01:43;26.40;52.00
19039;DHT22;9652;49.014;12.052;2023-10-13T12:04:29;26.40;51.70
19039;DHT22;9652;49.014;12.052;2023-10-13T12:07:10;26.40;51.90
19039;DHT22;9652;49.014;12.052;2023-10-13T12:09:46;26.40;51.70
19039;DHT22;9652;49.014;12.052;2023-10-13T12:12:32;26.50;51.50
19039;DHT22;9652;49.014;12.052;2023-10-13T12:15:06;26.50;51.70
19039;DHT22;9652;49.014;12.052;2023-10-13T12:17:51;26.60;51.00
19039;DHT22;9652;49.014;12.052;2023-10-13T12:20:18;26.60;50.60
19039;DHT22;9652;49.014;12.052;2023-10-13T12:22:59;26.70;50.60
19039;DHT22;9652;49.014;12.052;2023-10-13T12:25:37;26.80;50.60
19039;DHT22;9652;49.014;12.052;2023-10-13T12:28:22;26.70;50.50
19039;DHT22;9652;49.014;12.052;2023-10-13T12:30:51;26.80;50.60
19039;DHT22;9652;49.014;12.052;2023-10-13T12:33:19;26.80;50.80
19039;DHT22;9652;49.014;12.052;2023-10-13T12:36:03;26.90;50.50
19039;DHT22;9652;49.014;12.052;2023-10-13T12:38:37;26.90;50.30
19039;DHT22;9652;49.014;12.052;2023-10-13T12:41:17;27.00;49.60
19039;DHT22;9652;49.014;12.052;2023-10-13T12:44:05;27.10;50.20
19039;DHT22;9652;49.014;12.052;2023-10-13T12:46:50;27.20;50.10
19039;DHT22;9652;49.014;12.052;2023-10-13T12:49:35;27.20;49.70
19039;DHT22;9652;49.014;12.052;2023-10-13T12:52:15;27.30;49.20
19039;DHT22;9652;49.014;12.052;2023-10-13T12:54:47;27.30;49.10
19039;DHT22;9652;49.014;12.052;2023-10-13T12:57:24;27.30;48.90
19039;DHT22;9652;49.014;12.052;2023-10-13T12:59:51;27.40;48.80
19039;DHT22;9652;49.014;12.052;2023-10-13T13:02:20;27.30;47.80
19039;DHT22;9652;49.014;12.052;2023-10-13T13:04:50;27.40;47.60
19039;DHT22;9652;49.014;12.052;2023-10-13T13:07:22;27.40;47.90
19039;DHT22;9652;49.014;12.052;2023-10-13T13:09:56;27.40;47.70
19039;DHT22;9652;49.014;12.052;2023-10-13T13:12:25;27.40;47.30
19039;DHT22;9652;49.014;12.052;2023-10-13T13:14:53;27.40;47.40
19039;DHT22;9652;49.014;12.052;2023-10-13T13:17:21;27.40;47.40
19039;DHT22;9652;49.014;12.052;2023-10-13T13:19:48;27.40;47.30
19039;DHT22;9652;49.014;12.052;2023-10-13T13:22:15;27.40;46.80
19039;DHT22;9652;49.014;12.052;2023-10-13T13:24:44;27.40;46.80
19039;DHT22;9652;49.014;12.052;2023-10-13T13:27:14;27.50;47.00
19039;DHT22;9652;49.014;12.052;2023-10-13T13:29:45;27.50;46.60
19039;DHT22;9652;49.014;12.052;2023-10-13T13:32:12;27.50;46.60
19039;DHT22;9652;49.014;12.052;2023-10-13T13:34:49;27.50;46.30
19039;DHT22;9652;49.014;12.052;2023-10-13T13:37:24;27.50;46.20
19039;DHT22;9652;49.014;12.052;2023-10-13T13:39:53;27.50;46.50
19039;DHT22;9652;49.014;12.052;2023-10-13T13:42:21;27.40;46.40
19039;DHT22;9652;49.014;12.052;2023-10-13T13:44:48;27.40;46.30
19039;DHT22;9652;49.014;12.052;2023-10-13T13:47:15;27.40;46.10
19039;DHT22;9652;49.014;12.052;2023-10-13T13:49:43;27.30;45.60
19039;DHT22;9652;49.014;12.052;2023-10-13T13:52:16;27.30;45.10
19039;DHT22;9652;49.014;12.052;2023-10-13T13:54:47;27.30;45.10
19039;DHT22;9652;49.014;12.052;2023-10-13T13:57:14;27.30;45.30
19039;DHT22;9652;49.014;12.052;2023-10-13T13:59:44;27.30;44.80
19039;DHT22;9652;49.014;12.052;2023-10-13T14:02:11;27.30;44.60
19039;DHT22;9652;49.014;12.052;2023-10-13T14:04:46;27.30;44.80
19039;DHT22;9652;49.014;12.052;2023-10-13T14:07:16;27.20;44.40
19039;DHT22;9652;49.014;12.052;2023-10-13T14:09:45;27.30;45.10
19039;DHT22;9652;49.014;12.052;2023-10-13T14:12:17;27.30;45.00
19039;DHT22;9652;49.014;12.052;2023-10-13T14:15:03;27.30;44.60
19039;DHT22;9652;49.014;12.052;2023-10-13T14:17:45;27.40;44.30
19039;DHT22;9652;49.014;12.052;2023-10-13T14:20:14;27.50;44.80
19039;DHT22;9652;49.014;12.052;2023-10-13T14:22:44;27.50;44.80
19039;DHT22;9652;49.014;12.052;2023-10-13T14:25:13;27.60;44.30
19039;DHT22;9652;49.014;12.052;2023-10-13T14:27:41;27.70;44.00
19039;DHT22;9652;49.014;12.052;2023-10-13T14:30:10;27.70;44.30
19039;DHT22;9652;49.014;12.052;2023-10-13T14:32:44;27.80;44.00
19039;DHT22;9652;49.014;12.052;2023-10-13T14:35:12;27.80;43.80
19039;DHT22;9652;49.014;12.052;2023-10-13T14:37:41;27.80;43.60
19039;DHT22;9652;49.014;12.052;2023-10-13T14:40:08;27.80;43.70
19039;DHT22;9652;49.014;12.052;2023-10-13T14:42:38;27.80;43.70
19039;DHT22;9652;49.014;12.052;2023-10-13T14:45:07;27.80;43.50
19039;DHT22;9652;49.014;12.052;2023-10-13T14:47:39;27.70;43.30
19039;DHT22;9652;49.014;12.052;2023-10-13T14:50:07;27.70;43.40
19039;DHT22;9652;49.014;12.052;2023-10-13T14:52:40;27.60;43.50
19039;DHT22;9652;49.014;12.052;2023-10-13T14:55:09;27.60;42.90
19039;DHT22;9652;49.014;12.052;2023-10-13T14:57:45;27.50;43.00
19039;DHT22;9652;49.014;12.052;2023-10-13T15:00:13;27.40;42.80
19039;DHT22;9652;49.014;12.052;2023-10-13T15:02:42;27.40;42.80
19039;DHT22;9652;49.014;12.052;2023-10-13T15:05:10;27.20;42.50
19039;DHT22;9652;49.014;12.052;2023-10-13T15:07:42;27.20;42.80
19039;DHT22;9652;49.014;12.052;2023-10-13T15:10:12;27.10;42.80
19039;DHT22;9652;49.014;12.052;2023-10-13T15:12:41;27.00;43.10
19039;DHT22;9652;49.014;12.052;2023-10-13T15:15:10;26.90;43.20
19039;DHT22;9652;49.014;12.052;2023-10-13T15:17:43;26.80;43.30
19039;DHT22;9652;49.014;12.052;2023-10-13T15:20:11;26.70;43.40
19039;DHT22;9652;49.014;12.052;2023-10-13T15:22:42;26.50;43.70
19039;DHT22;9652;49.014;12.052;2023-10-13T15:25:10;26.40;43.80
19039;DHT22;9652;49.014;12.052;2023-10-13T15:27:46;26.30;44.00
19039;DHT22;9652;49.014;12.052;2023-10-13T15:30:22;26.20;44.10
19039;DHT22;9652;49.014;12.052;2023-10-13T15:32:53;26.10;44.10
19039;DHT22;9652;49.014;12.052;2023-10-13T15:35:22;26.00;44.20
19039;DHT22;9652;49.014;12.052;2023-10-13T15:37:55;25.80;44.40
19039;DHT22;9652;49.014;12.052;2023-10-13T15:40:22;25.80;44.60
19039;DHT22;9652;49.014;12.052;2023-10-13T15:42:49;25.70;44.70
19039;DHT22;9652;49.014;12.052;2023-10-13T15:45:16;25.50;44.90
19039;DHT22;9652;49.014;12.052;2023-10-13T15:47:44;25.50;45.10
19039;DHT22;9652;49.014;12.052;2023-10-13T15:50:15;25.40;45.30
19039;DHT22;9652;49.014;12.052;2023-10-13T15:52:46;25.30;45.60
19039;DHT22;9652;49.014;12.052;2023-10-13T15:55:13;25.20;45.60
19039;DHT22;9652;49.014;12.052;2023-10-13T15:57:43;25.10;45.70
19039;DHT22;9652;49.014;12.052;2023-10-13T16:00:11;25.00;46.00
19039;DHT22;9652;49.014;12.052;2023-10-13T16:02:51;24.90;46.10
19039;DHT22;9652;49.014;12.052;2023-10-13T16:05:21;24.70;46.30
19039;DHT22;9652;49.014;12.052;2023-10-13T16:07:51;24.70;46.50
19039;DHT22;9652;49.014;12.052;2023-10-13T16:10:21;24.50;46.60
19039;DHT22;9652;49.014;12.052;2023-10-13T16:12:48;24.50;46.80
19039;DHT22;9652;49.014;12.052;2023-10-13T16:15:15;24.30;46.90
19039;DHT22;9652;49.014;12.052;2023-10-13T16:17:44;24.20;47.10